createdAt,value
2023-02-04T00:00:23.130Z,6.49
2023-02-04T00:02:50.616Z,6.48
2023-02-04T00:05:19.238Z,6.43
2023-02-04T00:07:46.593Z,6.40
2023-02-04T00:10:14.101Z,6.40
2023-02-04T00:12:41.435Z,6.45
2023-02-04T00:15:10.782Z,6.51
2023-02-04T00:17:39.396Z,6.49
2023-02-04T00:20:07.100Z,6.50
2023-02-04T00:22:34.516Z,6.44
2023-02-04T00:25:01.898Z,6.45
2023-02-04T00:27:29.316Z,6.42
2023-02-04T00:29:57.709Z,6.42
2023-02-04T00:32:25.394Z,6.42
2023-02-04T00:34:54.936Z,6.40
2023-02-04T00:37:22.467Z,6.41
2023-02-04T00:39:49.890Z,6.41
2023-02-04T00:42:17.387Z,6.41
2023-02-04T00:44:44.796Z,6.40
2023-02-04T00:47:12.205Z,6.39
2023-02-04T00:49:39.565Z,6.41
2023-02-04T00:52:07.047Z,6.36
2023-02-04T00:54:34.451Z,6.40
2023-02-04T00:57:02.008Z,6.39
2023-02-04T00:59:29.951Z,6.30
2023-02-04T01:01:57.338Z,6.33
2023-02-04T01:04:25.809Z,6.35
2023-02-04T01:06:53.149Z,6.32
2023-02-04T01:09:20.585Z,6.33
2023-02-04T01:11:47.927Z,6.31
2023-02-04T01:14:15.343Z,6.31
2023-02-04T01:16:42.782Z,6.30
2023-02-04T01:19:10.223Z,6.26
2023-02-04T01:21:38.775Z,6.26
2023-02-04T01:24:07.459Z,6.28
2023-02-04T01:26:54.846Z,6.26
2023-02-04T01:29:22.171Z,6.21
2023-02-04T01:31:51.192Z,6.21
2023-02-04T01:34:18.553Z,6.22
2023-02-04T01:36:45.880Z,6.29
2023-02-04T01:39:13.699Z,6.20
2023-02-04T01:41:41.400Z,6.20
2023-02-04T01:44:08.734Z,6.19
2023-02-04T01:46:37.378Z,6.13
2023-02-04T01:49:05.764Z,6.18
2023-02-04T01:51:33.306Z,6.11
2023-02-04T01:54:01.059Z,6.14
2023-02-04T01:56:30.556Z,6.15
2023-02-04T01:58:58.557Z,6.11
2023-02-04T02:01:35.927Z,6.10
2023-02-04T02:04:03.598Z,6.11
2023-02-04T02:06:31.320Z,6.09
2023-02-04T02:08:58.996Z,6.10
2023-02-04T02:11:27.617Z,6.14
2023-02-04T02:13:55.246Z,6.10
2023-02-04T02:16:22.879Z,6.18
2023-02-04T02:18:50.899Z,6.08
2023-02-04T02:21:24.199Z,6.08
2023-02-04T02:23:54.224Z,6.12
2023-02-04T02:26:22.394Z,6.19
2023-02-04T02:28:50.183Z,6.17
2023-02-04T02:31:19.106Z,6.13
2023-02-04T02:33:47.118Z,6.21
2023-02-04T02:36:16.917Z,6.17
2023-02-04T02:38:44.413Z,6.18
2023-02-04T02:41:11.888Z,6.13
2023-02-04T02:43:39.571Z,6.08
2023-02-04T02:46:07.466Z,6.08
2023-02-04T02:48:34.938Z,6.07
2023-02-04T02:51:02.363Z,6.04
2023-02-04T02:53:29.739Z,6.00
2023-02-04T02:55:57.483Z,5.98
2023-02-04T02:58:34.851Z,6.01
2023-02-04T03:01:04.691Z,5.99
2023-02-04T03:03:36.869Z,5.95
2023-02-04T03:06:07.907Z,5.94
2023-02-04T03:08:35.604Z,5.93
2023-02-04T03:11:03.204Z,5.89
2023-02-04T03:13:31.816Z,5.95
2023-02-04T03:15:59.346Z,5.97
2023-02-04T03:18:27.251Z,6.00
2023-02-04T03:20:55.358Z,5.91
2023-02-04T03:23:22.809Z,5.97
2023-02-04T03:25:50.237Z,5.99
2023-02-04T03:28:18.447Z,6.06
2023-02-04T03:30:56.102Z,5.99
2023-02-04T03:33:31.662Z,5.94
2023-02-04T03:35:59.374Z,5.98
2023-02-04T03:38:26.866Z,5.97
2023-02-04T03:40:54.215Z,5.89
2023-02-04T03:43:21.640Z,5.97
2023-02-04T03:45:48.990Z,5.87
2023-02-04T03:48:16.278Z,5.89
2023-02-04T03:50:43.786Z,5.87
2023-02-04T03:53:11.197Z,5.94
2023-02-04T03:55:38.667Z,5.86
2023-02-04T03:58:06.705Z,5.76
2023-02-04T04:00:34.254Z,5.74
2023-02-04T04:03:01.642Z,5.73
2023-02-04T04:05:29.110Z,5.65
2023-02-04T04:07:56.780Z,5.70
2023-02-04T04:10:24.200Z,5.71
2023-02-04T04:12:51.570Z,5.66
2023-02-04T04:15:18.983Z,5.66
2023-02-04T04:17:46.340Z,5.65
2023-02-04T04:20:13.962Z,5.64
2023-02-04T04:22:41.307Z,5.55
2023-02-04T04:25:09.153Z,5.52
2023-02-04T04:27:36.513Z,5.58
2023-02-04T04:30:04.833Z,5.64
2023-02-04T04:32:32.169Z,5.56
2023-02-04T04:34:59.590Z,5.48
2023-02-04T04:37:27.152Z,5.38
2023-02-04T04:39:54.515Z,5.22
2023-02-04T04:42:22.084Z,5.18
2023-02-04T04:44:49.496Z,5.33
2023-02-04T04:47:16.880Z,5.34
2023-02-04T04:49:44.257Z,5.34
2023-02-04T04:52:11.815Z,5.30
2023-02-04T04:54:39.233Z,5.20
2023-02-04T04:57:06.563Z,5.09
2023-02-04T04:59:33.916Z,5.05
2023-02-04T05:02:01.316Z,5.09
2023-02-04T05:04:28.705Z,5.06
2023-02-04T05:06:56.129Z,5.08
2023-02-04T05:09:23.529Z,4.92
2023-02-04T05:11:50.917Z,5.02
2023-02-04T05:14:18.326Z,5.06
2023-02-04T05:16:45.688Z,5.20
2023-02-04T05:19:13.192Z,5.10
2023-02-04T05:21:40.851Z,4.93
2023-02-04T05:24:08.243Z,4.78
2023-02-04T05:26:35.607Z,4.86
2023-02-04T05:29:03.086Z,4.85
2023-02-04T05:31:30.479Z,4.87
2023-02-04T05:33:57.979Z,4.78
2023-02-04T05:36:25.373Z,4.62
2023-02-04T05:38:52.948Z,4.58
2023-02-04T05:41:20.355Z,4.67
2023-02-04T05:43:47.674Z,4.62
2023-02-04T05:46:15.156Z,4.63
2023-02-04T05:48:42.650Z,4.60
2023-02-04T05:51:10.016Z,4.53
2023-02-04T05:53:37.431Z,4.39
2023-02-04T05:56:04.969Z,4.23
2023-02-04T05:58:34.962Z,4.12
2023-02-04T06:01:03.532Z,4.14
2023-02-04T06:03:32.673Z,4.01
2023-02-04T06:06:00.121Z,3.81
2023-02-04T06:08:27.531Z,3.68
2023-02-04T06:10:54.880Z,3.71
2023-02-04T06:13:22.245Z,3.74
2023-02-04T06:15:49.591Z,3.84
2023-02-04T06:18:16.923Z,3.75
2023-02-04T06:20:44.386Z,3.66
2023-02-04T06:23:11.692Z,3.59
2023-02-04T06:25:39.070Z,3.57
2023-02-04T06:28:06.454Z,3.57
2023-02-04T06:30:34.074Z,3.56
2023-02-04T06:33:01.558Z,3.41
2023-02-04T06:35:29.043Z,3.32
2023-02-04T06:37:56.424Z,3.54
2023-02-04T06:40:23.756Z,3.23
2023-02-04T06:42:51.144Z,3.08
2023-02-04T06:45:18.522Z,3.08
2023-02-04T06:47:45.947Z,3.12
2023-02-04T06:50:18.501Z,3.31
2023-02-04T06:52:48.965Z,3.42
2023-02-04T06:55:17.746Z,3.30
2023-02-04T06:57:45.134Z,3.28
2023-02-04T07:00:13.126Z,3.45
2023-02-04T07:02:40.586Z,3.37
2023-02-04T07:05:08.485Z,3.47
2023-02-04T07:07:35.919Z,3.36
2023-02-04T07:10:03.565Z,3.34
2023-02-04T07:12:30.941Z,3.45
2023-02-04T07:14:58.255Z,3.27
2023-02-04T07:17:25.641Z,3.24
2023-02-04T07:19:53.054Z,3.21
2023-02-04T07:22:20.409Z,3.36
2023-02-04T07:24:47.833Z,3.47
2023-02-04T07:27:15.192Z,3.56
2023-02-04T07:29:42.529Z,3.62
2023-02-04T07:32:09.873Z,3.76
2023-02-04T07:34:37.328Z,4.00
2023-02-04T07:37:04.907Z,4.21
2023-02-04T07:39:32.328Z,4.30
2023-02-04T07:41:59.701Z,4.27
2023-02-04T07:44:33.940Z,4.19
2023-02-04T07:47:01.321Z,4.03
2023-02-04T07:49:29.012Z,3.45
2023-02-04T07:51:57.846Z,3.30
2023-02-04T07:54:25.269Z,3.34
2023-02-04T07:56:52.684Z,3.32
2023-02-04T07:59:20.026Z,3.16
2023-02-04T08:01:48.095Z,3.14
2023-02-04T08:04:15.565Z,3.13
2023-02-04T08:06:42.976Z,3.15
2023-02-04T08:09:10.388Z,3.48
2023-02-04T08:11:37.807Z,3.76
2023-02-04T08:14:05.117Z,3.70
2023-02-04T08:16:32.642Z,3.84
2023-02-04T08:19:00.092Z,4.01
2023-02-04T08:21:27.429Z,4.06
2023-02-04T08:23:54.803Z,3.93
2023-02-04T08:26:22.226Z,3.79
2023-02-04T08:28:49.814Z,3.92
2023-02-04T08:31:17.259Z,3.85
2023-02-04T08:33:44.641Z,3.74
2023-02-04T08:36:12.008Z,3.81
2023-02-04T08:38:40.508Z,3.94
2023-02-04T08:41:08.113Z,4.27
2023-02-04T08:43:36.847Z,4.50
2023-02-04T08:46:04.475Z,4.59
2023-02-04T08:48:31.957Z,4.62
2023-02-04T08:50:59.331Z,4.62
2023-02-04T08:53:26.816Z,4.48
2023-02-04T08:55:54.220Z,4.25
2023-02-04T08:58:21.576Z,4.25
2023-02-04T09:00:49.007Z,4.45
2023-02-04T09:03:16.379Z,4.42
2023-02-04T09:05:43.756Z,4.37
2023-02-04T09:08:11.161Z,4.34
2023-02-04T09:10:38.576Z,4.39
2023-02-04T09:13:05.939Z,4.52
2023-02-04T09:15:33.450Z,4.59
2023-02-04T09:18:15.164Z,4.89
2023-02-04T09:20:43.297Z,5.01
2023-02-04T09:23:12.190Z,5.24
2023-02-04T09:25:44.193Z,5.41
2023-02-04T09:28:12.830Z,5.44
2023-02-04T09:30:41.408Z,5.44
2023-02-04T09:33:09.248Z,5.46
2023-02-04T09:35:36.841Z,5.24
2023-02-04T09:38:04.704Z,5.26
2023-02-04T09:40:36.034Z,5.46
2023-02-04T09:43:04.545Z,5.45
2023-02-04T09:45:35.394Z,5.50
2023-02-04T09:48:09.524Z,5.69
2023-02-04T09:50:37.579Z,5.77
2023-02-04T09:53:06.675Z,5.96
2023-02-04T09:55:40.048Z,6.28
2023-02-04T09:58:17.405Z,6.34
2023-02-04T10:00:51.079Z,6.97
2023-02-04T10:03:22.075Z,7.10
2023-02-04T10:05:50.361Z,7.03
2023-02-04T10:08:20.999Z,7.02
2023-02-04T10:10:49.543Z,7.15
2023-02-04T10:13:44.270Z,7.20
2023-02-04T10:16:32.451Z,7.30
2023-02-04T10:19:04.584Z,7.53
2023-02-04T10:21:33.473Z,7.69
2023-02-04T10:24:02.961Z,7.29
2023-02-04T10:26:32.139Z,7.15
2023-02-04T10:29:03.629Z,7.58
2023-02-04T10:31:34.590Z,7.77
2023-02-04T10:34:10.969Z,7.84
2023-02-04T10:36:39.195Z,7.90
2023-02-04T10:39:21.302Z,7.75
2023-02-04T10:41:56.095Z,7.91
2023-02-04T10:44:30.269Z,7.90
2023-02-04T10:47:06.153Z,7.90
2023-02-04T10:49:33.841Z,7.85
2023-02-04T10:52:02.008Z,7.76
2023-02-04T10:54:35.777Z,7.80
2023-02-04T10:57:26.560Z,7.77
2023-02-04T10:59:59.755Z,7.75
2023-02-04T11:02:43.406Z,7.52
2023-02-04T11:05:17.473Z,7.52
2023-02-04T11:07:46.616Z,7.52
2023-02-04T11:10:25.320Z,7.51
2023-02-04T11:12:55.380Z,7.45
2023-02-04T11:15:45.544Z,7.53
2023-02-04T11:18:33.154Z,7.81
2023-02-04T11:21:00.812Z,7.63
2023-02-04T11:23:32.288Z,7.64
2023-02-04T11:26:19.190Z,8.32
2023-02-04T11:28:49.512Z,8.33
2023-02-04T11:31:22.895Z,8.21
2023-02-04T11:34:07.056Z,8.95
2023-02-04T11:36:34.456Z,8.63
2023-02-04T11:39:14.151Z,8.42
2023-02-04T11:41:46.094Z,8.00
2023-02-04T11:44:14.613Z,7.79
2023-02-04T11:46:42.255Z,7.10
2023-02-04T11:49:21.599Z,7.14
2023-02-04T11:51:49.200Z,7.36
2023-02-04T11:54:19.136Z,7.93
2023-02-04T11:56:47.640Z,8.55
2023-02-04T11:59:17.548Z,8.90
2023-02-04T12:01:44.880Z,8.47
2023-02-04T12:04:24.741Z,8.42
2023-02-04T12:07:03.580Z,8.56
2023-02-04T12:09:32.520Z,7.99
2023-02-04T12:12:02.449Z,8.68
2023-02-04T12:14:33.543Z,9.47
2023-02-04T12:17:01.021Z,9.77
2023-02-04T12:19:28.788Z,9.70
2023-02-04T12:21:56.514Z,9.85
2023-02-04T12:24:23.912Z,9.43
2023-02-04T12:26:51.661Z,9.44
2023-02-04T12:29:19.038Z,9.26
2023-02-04T12:31:46.513Z,9.08
2023-02-04T12:34:13.975Z,9.07
2023-02-04T12:36:41.312Z,8.78
2023-02-04T12:39:08.698Z,8.78
2023-02-04T12:41:36.474Z,9.33
2023-02-04T12:44:04.454Z,9.00
2023-02-04T12:46:31.895Z,8.73
2023-02-04T12:48:59.283Z,8.26
2023-02-04T12:51:26.651Z,8.25
2023-02-04T12:53:53.951Z,8.18
2023-02-04T12:56:24.062Z,8.47
2023-02-04T12:58:51.378Z,8.68
2023-02-04T13:01:18.793Z,8.76
2023-02-04T13:03:46.185Z,8.72
2023-02-04T13:06:13.576Z,8.64
2023-02-04T13:08:40.914Z,8.62
2023-02-04T13:11:08.220Z,8.69
2023-02-04T13:13:35.592Z,8.82
2023-02-04T13:16:02.995Z,8.67
2023-02-04T13:18:30.647Z,8.85
2023-02-04T13:20:57.981Z,8.85
2023-02-04T13:23:25.341Z,8.64
2023-02-04T13:25:52.670Z,8.48
2023-02-04T13:28:20.035Z,8.31
2023-02-04T13:30:47.398Z,8.09
2023-02-04T13:33:14.714Z,7.96
2023-02-04T13:35:42.074Z,7.88
2023-02-04T13:38:09.459Z,7.71
2023-02-04T13:40:37.003Z,7.58
2023-02-04T13:43:04.297Z,7.54
2023-02-04T13:45:32.011Z,7.57
2023-02-04T13:47:59.606Z,7.53
2023-02-04T13:50:27.271Z,7.39
2023-02-04T13:52:55.310Z,7.38
2023-02-04T13:55:22.771Z,7.44
2023-02-04T13:57:50.157Z,7.54
2023-02-04T14:00:17.671Z,7.93
2023-02-04T14:02:45.121Z,8.32
2023-02-04T14:05:12.453Z,8.52
2023-02-04T14:07:39.768Z,8.38
2023-02-04T14:10:07.882Z,8.21
2023-02-04T14:12:35.284Z,7.36
2023-02-04T14:15:02.572Z,7.20
2023-02-04T14:17:29.976Z,7.25
2023-02-04T14:19:57.455Z,7.49
2023-02-04T14:22:24.862Z,7.55
2023-02-04T14:24:52.295Z,7.31
2023-02-04T14:27:19.601Z,7.18
2023-02-04T14:29:46.903Z,6.86
2023-02-04T14:32:14.252Z,6.66
2023-02-04T14:34:41.625Z,6.53
2023-02-04T14:37:09.034Z,6.39
2023-02-04T14:39:36.447Z,6.38
2023-02-04T14:42:05.265Z,6.37
2023-02-04T14:44:33.107Z,6.43
2023-02-04T14:47:00.470Z,6.54
2023-02-04T14:49:27.782Z,6.66
2023-02-04T14:51:56.885Z,6.60
2023-02-04T14:54:24.386Z,6.48
2023-02-04T14:56:52.554Z,6.44
2023-02-04T14:59:19.915Z,6.44
2023-02-04T15:01:47.279Z,6.36
2023-02-04T15:04:14.598Z,6.32
2023-02-04T15:06:42.061Z,6.30
2023-02-04T15:09:09.441Z,6.28
2023-02-04T15:11:36.820Z,6.22
2023-02-04T15:14:04.203Z,6.20
2023-02-04T15:16:31.593Z,6.20
2023-02-04T15:18:59.051Z,6.12
2023-02-04T15:21:27.318Z,6.11
2023-02-04T15:23:54.686Z,6.24
2023-02-04T15:26:22.480Z,6.28
2023-02-04T15:28:49.818Z,6.28
2023-02-04T15:31:17.299Z,6.23
2023-02-04T15:33:44.753Z,6.19
2023-02-04T15:36:12.103Z,6.15
2023-02-04T15:38:39.585Z,6.15
2023-02-04T15:41:07.002Z,6.26
2023-02-04T15:43:34.328Z,6.25
2023-02-04T15:46:01.844Z,6.19
2023-02-04T15:48:29.245Z,6.23
2023-02-04T15:50:57.794Z,6.27
2023-02-04T15:53:25.259Z,6.25
2023-02-04T15:55:52.624Z,6.18
2023-02-04T15:58:19.994Z,6.14
2023-02-04T16:00:47.379Z,6.10
2023-02-04T16:03:14.755Z,6.00
2023-02-04T16:05:42.076Z,5.78
2023-02-04T16:08:09.384Z,5.65
2023-02-04T16:10:36.729Z,5.61
2023-02-04T16:13:04.104Z,5.56
2023-02-04T16:15:31.982Z,5.56
2023-02-04T16:17:59.611Z,5.44
2023-02-04T16:20:27.072Z,5.36
2023-02-04T16:22:54.543Z,5.20
2023-02-04T16:25:22.876Z,5.11
2023-02-04T16:27:50.572Z,4.90
2023-02-04T16:30:18.084Z,4.80
2023-02-04T16:32:45.470Z,4.73
2023-02-04T16:35:14.296Z,4.71
2023-02-04T16:37:41.774Z,4.54
2023-02-04T16:40:11.171Z,4.50
2023-02-04T16:42:38.658Z,4.50
2023-02-04T16:45:06.406Z,4.40
2023-02-04T16:47:33.799Z,4.19
2023-02-04T16:50:01.227Z,4.06
2023-02-04T16:52:29.305Z,3.98
2023-02-04T16:54:56.676Z,3.80
2023-02-04T16:57:24.095Z,3.61
2023-02-04T16:59:51.620Z,3.48
2023-02-04T17:02:18.935Z,3.17
2023-02-04T17:04:46.368Z,2.99
2023-02-04T17:07:13.706Z,2.96
2023-02-04T17:09:41.071Z,2.90
2023-02-04T17:12:08.451Z,2.97
2023-02-04T17:14:35.919Z,2.89
2023-02-04T17:17:03.432Z,2.68
2023-02-04T17:19:30.809Z,2.62
2023-02-04T17:21:59.020Z,2.51
2023-02-04T17:24:26.453Z,2.42
2023-02-04T17:26:53.790Z,2.31
2023-02-04T17:29:23.117Z,2.22
2023-02-04T17:31:52.642Z,2.40
2023-02-04T17:34:20.136Z,2.43
2023-02-04T17:36:47.507Z,2.26
2023-02-04T17:39:14.825Z,2.21
2023-02-04T17:41:42.188Z,2.48
2023-02-04T17:44:09.935Z,2.67
2023-02-04T17:46:37.439Z,2.61
2023-02-04T17:49:04.917Z,2.74
2023-02-04T17:51:32.894Z,2.59
2023-02-04T17:54:00.435Z,2.51
2023-02-04T17:56:27.865Z,2.37
2023-02-04T17:58:56.100Z,2.29
2023-02-04T18:01:23.724Z,2.31
2023-02-04T18:03:51.584Z,1.89
2023-02-04T18:06:27.102Z,2.00
2023-02-04T18:09:01.394Z,1.69
2023-02-04T18:11:32.984Z,1.35
2023-02-04T18:14:02.293Z,1.23
2023-02-04T18:16:34.362Z,1.16
2023-02-04T18:19:28.537Z,1.04
2023-02-04T18:21:56.203Z,0.90
2023-02-04T18:24:32.953Z,0.92
2023-02-04T18:27:04.689Z,0.74
2023-02-04T18:29:34.591Z,0.83
2023-02-04T18:32:36.833Z,1.05
2023-02-04T18:35:34.244Z,0.99
2023-02-04T18:38:01.642Z,0.80
2023-02-04T18:40:33.512Z,0.77
2023-02-04T18:43:28.005Z,0.94
2023-02-04T18:45:59.831Z,0.77
2023-02-04T18:48:27.132Z,0.94
2023-02-04T18:50:54.986Z,1.06
2023-02-04T18:53:29.151Z,1.05
2023-02-04T18:56:00.605Z,1.16
2023-02-04T18:58:34.128Z,1.04
2023-02-04T19:01:07.090Z,0.55
2023-02-04T19:03:42.192Z,0.37
2023-02-04T19:06:33.965Z,0.43
2023-02-04T19:09:10.083Z,0.10
2023-02-04T19:11:41.664Z,-0.06
2023-02-04T19:14:40.858Z,0.06
2023-02-04T19:17:14.404Z,-0.01
2023-02-04T19:19:52.424Z,-0.28
2023-02-04T19:22:43.696Z,-0.61
2023-02-04T19:25:26.033Z,-0.51
2023-02-04T19:28:01.932Z,-0.59
2023-02-04T19:30:29.385Z,-0.62
2023-02-04T19:32:58.331Z,-0.65
2023-02-04T19:35:28.562Z,-0.33
2023-02-04T19:38:00.418Z,-0.46
2023-02-04T19:40:27.766Z,-0.21
2023-02-04T19:43:16.546Z,-0.46
2023-02-04T19:45:44.851Z,-0.60
2023-02-04T19:48:21.076Z,-0.82
2023-02-04T19:50:51.006Z,-0.98
2023-02-04T19:53:22.874Z,-0.99
2023-02-04T19:55:54.115Z,-0.89
2023-02-04T19:58:41.854Z,-0.67
2023-02-04T20:01:16.516Z,-0.49
2023-02-04T20:03:45.649Z,-0.49
2023-02-04T20:06:33.905Z,-0.54
2023-02-04T20:09:23.447Z,-0.26
2023-02-04T20:11:57.875Z,-0.46
2023-02-04T20:14:37.640Z,-0.43
2023-02-04T20:17:18.315Z,-0.14
2023-02-04T20:19:46.154Z,-0.23
2023-02-04T20:22:23.400Z,-0.37
2023-02-04T20:25:19.733Z,-0.43
2023-02-04T20:27:55.192Z,-0.40
2023-02-04T20:30:27.913Z,-0.38
2023-02-04T20:32:58.702Z,-0.21
2023-02-04T20:35:32.332Z,-0.24
2023-02-04T20:38:07.266Z,-0.38
2023-02-04T20:40:35.938Z,-0.42
2023-02-04T20:43:13.188Z,-0.30
2023-02-04T20:45:59.627Z,-0.29
2023-02-04T20:48:34.024Z,-0.46
2023-02-04T20:51:03.938Z,-0.56
2023-02-04T20:53:54.106Z,-0.66
2023-02-04T20:56:27.551Z,-0.62
2023-02-04T20:58:58.074Z,-0.75
2023-02-04T21:01:37.174Z,-0.86
2023-02-04T21:04:30.195Z,-0.66
2023-02-04T21:07:21.887Z,-0.66
2023-02-04T21:09:49.797Z,-0.72
2023-02-04T21:12:17.154Z,-0.65
2023-02-04T21:14:44.689Z,-0.53
2023-02-04T21:17:12.018Z,-0.82
2023-02-04T21:19:39.413Z,-0.70
2023-02-04T21:22:06.741Z,-0.65
2023-02-04T21:24:34.232Z,-0.55
2023-02-04T21:27:01.818Z,-0.86
2023-02-04T21:29:29.196Z,-0.91
2023-02-04T21:31:56.629Z,-0.91
2023-02-04T21:34:24.010Z,-0.89
2023-02-04T21:36:51.323Z,-0.99
2023-02-04T21:39:20.718Z,-0.99
2023-02-04T21:42:08.040Z,-0.99
2023-02-04T21:44:38.222Z,-1.09
2023-02-04T21:47:05.922Z,-1.23
2023-02-04T21:49:33.253Z,-1.14
2023-02-04T21:52:01.321Z,-1.23
2023-02-04T21:54:28.651Z,-1.15
2023-02-04T21:56:56.064Z,-0.98
2023-02-04T21:59:25.201Z,-1.04
2023-02-04T22:01:52.617Z,-1.16
2023-02-04T22:04:20.008Z,-1.27
2023-02-04T22:06:47.448Z,-1.36
2023-02-04T22:09:15.830Z,-1.44
2023-02-04T22:11:43.291Z,-1.51
2023-02-04T22:14:10.620Z,-1.19
2023-02-04T22:16:37.993Z,-1.35
2023-02-04T22:19:05.282Z,-1.44
2023-02-04T22:21:34.758Z,-1.47
2023-02-04T22:24:02.070Z,-1.49
2023-02-04T22:26:29.418Z,-1.46
2023-02-04T22:28:56.841Z,-1.47
2023-02-04T22:31:24.288Z,-1.49
2023-02-04T22:33:51.712Z,-1.20
2023-02-04T22:36:19.134Z,-1.05
2023-02-04T22:38:46.505Z,-1.05
2023-02-04T22:41:14.194Z,-1.22
2023-02-04T22:43:41.497Z,-1.27
2023-02-04T22:46:08.801Z,-1.32
2023-02-04T22:48:36.163Z,-1.39
2023-02-04T22:51:03.713Z,-1.49
2023-02-04T22:53:31.254Z,-1.06
2023-02-04T22:55:58.580Z,-0.79
2023-02-04T22:58:25.964Z,-0.75
2023-02-04T23:00:53.565Z,-0.93
2023-02-04T23:03:20.989Z,-0.68
2023-02-04T23:05:48.367Z,-0.62
2023-02-04T23:08:17.745Z,-0.72
2023-02-04T23:10:45.982Z,-0.48
2023-02-04T23:13:13.429Z,-0.51
2023-02-04T23:15:40.792Z,-0.80
2023-02-04T23:18:08.246Z,-0.92
2023-02-04T23:20:36.494Z,-0.99
2023-02-04T23:23:04.001Z,-0.88
2023-02-04T23:25:31.833Z,-0.80
2023-02-04T23:27:59.344Z,-0.93
2023-02-04T23:30:26.767Z,-1.00
2023-02-04T23:32:54.112Z,-1.05
2023-02-04T23:35:21.550Z,-1.03
2023-02-04T23:37:48.837Z,-1.01
2023-02-04T23:40:16.313Z,-0.95
2023-02-04T23:42:43.717Z,-0.94
2023-02-04T23:45:11.160Z,-1.00
2023-02-04T23:47:38.517Z,-1.06
2023-02-04T23:50:06.121Z,-1.12
2023-02-04T23:52:33.503Z,-1.12
2023-02-04T23:55:00.831Z,-1.11
2023-02-04T23:57:28.235Z,-0.96
2023-02-04T23:59:55.591Z,-0.84
